sensor_id;sensor_type;location;lat;lon;timestamp;P1;durP1;ratioP1;P2;durP2;ratioP2
11453;SDS011;5783;55.174;61.310;2023-05-07T00:01:30;6.23;;;4.10;;
11453;SDS011;5783;55.174;61.310;2023-05-07T00:03:59;5.63;;;3.90;;
11453;SDS011;5783;55.174;61.310;2023-05-07T00:06:29;7.50;;;4.23;;
11453;SDS011;5783;55.174;61.310;2023-05-07T00:09:00;5.47;;;3.90;;
11453;SDS011;5783;55.174;61.310;2023-05-07T00:11:30;7.57;;;3.43;;
11453;SDS011;5783;55.174;61.310;2023-05-07T00:13:59;8.63;;;4.43;;
11453;SDS011;5783;55.174;61.310;2023-05-07T00:16:28;4.67;;;3.60;;
11453;SDS011;5783;55.174;61.310;2023-05-07T00:18:57;5.40;;;3.70;;
11453;SDS011;5783;55.174;61.310;2023-05-07T00:21:26;3.93;;;3.43;;
11453;SDS011;5783;55.174;61.310;2023-05-07T00:23:56;4.80;;;3.73;;
11453;SDS011;5783;55.174;61.310;2023-05-07T00:26:26;5.47;;;3.73;;
11453;SDS011;5783;55.174;61.310;2023-05-07T00:28:55;7.73;;;3.90;;
11453;SDS011;5783;55.174;61.310;2023-05-07T00:31:24;6.23;;;3.57;;
11453;SDS011;5783;55.174;61.310;2023-05-07T00:33:53;4.00;;;3.50;;
11453;SDS011;5783;55.174;61.310;2023-05-07T00:36:22;6.77;;;3.60;;
11453;SDS011;5783;55.174;61.310;2023-05-07T00:38:53;7.57;;;3.70;;
11453;SDS011;5783;55.174;61.310;2023-05-07T00:41:22;5.23;;;3.60;;
11453;SDS011;5783;55.174;61.310;2023-05-07T00:43:52;3.93;;;3.43;;
11453;SDS011;5783;55.174;61.310;2023-05-07T00:46:21;5.80;;;3.37;;
11453;SDS011;5783;55.174;61.310;2023-05-07T00:48:50;4.80;;;3.60;;
11453;SDS011;5783;55.174;61.310;2023-05-07T00:51:20;8.50;;;3.27;;
11453;SDS011;5783;55.174;61.310;2023-05-07T00:53:49;6.83;;;3.47;;
11453;SDS011;5783;55.174;61.310;2023-05-07T00:56:20;3.50;;;3.20;;
11453;SDS011;5783;55.174;61.310;2023-05-07T00:58:49;3.87;;;3.40;;
11453;SDS011;5783;55.174;61.310;2023-05-07T01:01:19;3.83;;;3.43;;
11453;SDS011;5783;55.174;61.310;2023-05-07T01:03:48;5.10;;;3.70;;
11453;SDS011;5783;55.174;61.310;2023-05-07T01:06:17;5.23;;;3.23;;
11453;SDS011;5783;55.174;61.310;2023-05-07T01:08:48;4.40;;;3.50;;
11453;SDS011;5783;55.174;61.310;2023-05-07T01:11:18;5.03;;;3.60;;
11453;SDS011;5783;55.174;61.310;2023-05-07T01:13:48;3.97;;;3.57;;
11453;SDS011;5783;55.174;61.310;2023-05-07T01:16:18;4.73;;;3.80;;
11453;SDS011;5783;55.174;61.310;2023-05-07T01:18:48;6.13;;;3.43;;
11453;SDS011;5783;55.174;61.310;2023-05-07T01:21:17;4.63;;;3.60;;
11453;SDS011;5783;55.174;61.310;2023-05-07T01:23:48;4.20;;;3.40;;
11453;SDS011;5783;55.174;61.310;2023-05-07T01:26:17;4.80;;;3.50;;
11453;SDS011;5783;55.174;61.310;2023-05-07T01:28:47;4.67;;;3.60;;
11453;SDS011;5783;55.174;61.310;2023-05-07T01:31:17;3.90;;;3.50;;
11453;SDS011;5783;55.174;61.310;2023-05-07T01:33:47;4.27;;;3.83;;
11453;SDS011;5783;55.174;61.310;2023-05-07T01:36:21;4.50;;;3.60;;
11453;SDS011;5783;55.174;61.310;2023-05-07T01:38:53;4.40;;;3.60;;
11453;SDS011;5783;55.174;61.310;2023-05-07T01:41:24;5.00;;;3.90;;
11453;SDS011;5783;55.174;61.310;2023-05-07T01:43:53;3.93;;;3.53;;
11453;SDS011;5783;55.174;61.310;2023-05-07T01:46:22;4.80;;;3.93;;
11453;SDS011;5783;55.174;61.310;2023-05-07T01:48:53;4.93;;;3.40;;
11453;SDS011;5783;55.174;61.310;2023-05-07T01:51:23;5.97;;;3.80;;
11453;SDS011;5783;55.174;61.310;2023-05-07T01:53:52;4.57;;;3.43;;
11453;SDS011;5783;55.174;61.310;2023-05-07T01:56:22;4.67;;;3.70;;
11453;SDS011;5783;55.174;61.310;2023-05-07T01:58:51;6.10;;;3.83;;
11453;SDS011;5783;55.174;61.310;2023-05-07T02:01:20;3.57;;;3.13;;
11453;SDS011;5783;55.174;61.310;2023-05-07T02:03:49;4.07;;;3.53;;
11453;SDS011;5783;55.174;61.310;2023-05-07T02:06:19;5.17;;;3.47;;
11453;SDS011;5783;55.174;61.310;2023-05-07T02:08:48;3.70;;;3.40;;
11453;SDS011;5783;55.174;61.310;2023-05-07T02:11:18;4.07;;;3.43;;
11453;SDS011;5783;55.174;61.310;2023-05-07T02:13:47;5.23;;;3.60;;
11453;SDS011;5783;55.174;61.310;2023-05-07T02:16:16;3.73;;;3.13;;
11453;SDS011;5783;55.174;61.310;2023-05-07T02:18:45;4.73;;;3.67;;
11453;SDS011;5783;55.174;61.310;2023-05-07T02:21:15;5.10;;;3.80;;
11453;SDS011;5783;55.174;61.310;2023-05-07T02:23:44;4.93;;;3.90;;
11453;SDS011;5783;55.174;61.310;2023-05-07T02:26:13;5.63;;;3.70;;
11453;SDS011;5783;55.174;61.310;2023-05-07T02:28:42;4.30;;;3.50;;
11453;SDS011;5783;55.174;61.310;2023-05-07T02:31:11;3.80;;;3.40;;
11453;SDS011;5783;55.174;61.310;2023-05-07T02:33:40;6.00;;;3.87;;
11453;SDS011;5783;55.174;61.310;2023-05-07T02:36:11;4.50;;;3.40;;
11453;SDS011;5783;55.174;61.310;2023-05-07T02:38:41;6.53;;;3.60;;
11453;SDS011;5783;55.174;61.310;2023-05-07T02:41:10;4.77;;;3.70;;
11453;SDS011;5783;55.174;61.310;2023-05-07T02:43:39;4.97;;;3.63;;
11453;SDS011;5783;55.174;61.310;2023-05-07T02:46:08;7.23;;;3.97;;
11453;SDS011;5783;55.174;61.310;2023-05-07T02:48:38;4.63;;;3.80;;
11453;SDS011;5783;55.174;61.310;2023-05-07T02:51:07;5.10;;;3.80;;
11453;SDS011;5783;55.174;61.310;2023-05-07T02:53:36;4.43;;;3.47;;
11453;SDS011;5783;55.174;61.310;2023-05-07T02:56:05;5.13;;;3.77;;
11453;SDS011;5783;55.174;61.310;2023-05-07T02:58:35;4.37;;;3.60;;
11453;SDS011;5783;55.174;61.310;2023-05-07T03:01:06;5.67;;;3.83;;
11453;SDS011;5783;55.174;61.310;2023-05-07T03:03:35;4.93;;;3.93;;
11453;SDS011;5783;55.174;61.310;2023-05-07T03:06:04;5.17;;;3.73;;
11453;SDS011;5783;55.174;61.310;2023-05-07T03:08:34;5.53;;;4.07;;
11453;SDS011;5783;55.174;61.310;2023-05-07T03:11:03;6.13;;;3.93;;
11453;SDS011;5783;55.174;61.310;2023-05-07T03:13:32;4.83;;;3.93;;
11453;SDS011;5783;55.174;61.310;2023-05-07T03:16:01;5.43;;;3.73;;
11453;SDS011;5783;55.174;61.310;2023-05-07T03:18:31;4.93;;;3.70;;
11453;SDS011;5783;55.174;61.310;2023-05-07T03:21:00;4.90;;;3.60;;
11453;SDS011;5783;55.174;61.310;2023-05-07T03:23:29;4.33;;;3.70;;
11453;SDS011;5783;55.174;61.310;2023-05-07T03:25:58;4.87;;;3.70;;
11453;SDS011;5783;55.174;61.310;2023-05-07T03:28:27;5.47;;;3.70;;
11453;SDS011;5783;55.174;61.310;2023-05-07T03:30:56;5.27;;;3.90;;
11453;SDS011;5783;55.174;61.310;2023-05-07T03:33:25;5.37;;;4.00;;
11453;SDS011;5783;55.174;61.310;2023-05-07T03:35:55;6.13;;;3.70;;
11453;SDS011;5783;55.174;61.310;2023-05-07T03:38:24;5.33;;;3.83;;
11453;SDS011;5783;55.174;61.310;2023-05-07T03:40:53;4.60;;;3.83;;
11453;SDS011;5783;55.174;61.310;2023-05-07T03:43:22;4.97;;;3.67;;
11453;SDS011;5783;55.174;61.310;2023-05-07T03:45:51;4.40;;;3.50;;
11453;SDS011;5783;55.174;61.310;2023-05-07T03:48:20;7.97;;;3.90;;
11453;SDS011;5783;55.174;61.310;2023-05-07T03:50:50;5.17;;;3.90;;
11453;SDS011;5783;55.174;61.310;2023-05-07T03:53:19;4.53;;;3.80;;
11453;SDS011;5783;55.174;61.310;2023-05-07T03:55:48;6.10;;;3.90;;
11453;SDS011;5783;55.174;61.310;2023-05-07T03:58:17;4.93;;;3.73;;
11453;SDS011;5783;55.174;61.310;2023-05-07T04:00:46;4.87;;;3.90;;
11453;SDS011;5783;55.174;61.310;2023-05-07T04:03:15;4.73;;;3.67;;
11453;SDS011;5783;55.174;61.310;2023-05-07T04:05:45;5.50;;;3.80;;
11453;SDS011;5783;55.174;61.310;2023-05-07T04:08:14;6.83;;;3.70;;
11453;SDS011;5783;55.174;61.310;2023-05-07T04:10:43;6.03;;;4.03;;
11453;SDS011;5783;55.174;61.310;2023-05-07T04:13:13;7.40;;;4.10;;
11453;SDS011;5783;55.174;61.310;2023-05-07T04:15:42;6.43;;;3.50;;
11453;SDS011;5783;55.174;61.310;2023-05-07T04:18:12;5.57;;;3.80;;
11453;SDS011;5783;55.174;61.310;2023-05-07T04:20:41;5.87;;;3.77;;
11453;SDS011;5783;55.174;61.310;2023-05-07T04:23:10;6.57;;;3.90;;
11453;SDS011;5783;55.174;61.310;2023-05-07T04:25:39;5.87;;;4.17;;
11453;SDS011;5783;55.174;61.310;2023-05-07T04:28:08;5.47;;;3.90;;
11453;SDS011;5783;55.174;61.310;2023-05-07T04:30:38;4.77;;;4.07;;
11453;SDS011;5783;55.174;61.310;2023-05-07T04:33:07;4.60;;;3.80;;
11453;SDS011;5783;55.174;61.310;2023-05-07T04:35:37;5.50;;;3.73;;
11453;SDS011;5783;55.174;61.310;2023-05-07T04:38:06;6.23;;;4.07;;
11453;SDS011;5783;55.174;61.310;2023-05-07T04:40:35;5.07;;;4.13;;
11453;SDS011;5783;55.174;61.310;2023-05-07T04:43:05;7.97;;;4.50;;
11453;SDS011;5783;55.174;61.310;2023-05-07T04:48:23;9.30;;;5.23;;
11453;SDS011;5783;55.174;61.310;2023-05-07T04:50:53;9.43;;;6.07;;
11453;SDS011;5783;55.174;61.310;2023-05-07T04:53:22;8.07;;;5.40;;
11453;SDS011;5783;55.174;61.310;2023-05-07T04:58:40;8.90;;;4.90;;
11453;SDS011;5783;55.174;61.310;2023-05-07T05:01:12;7.50;;;5.47;;
11453;SDS011;5783;55.174;61.310;2023-05-07T05:03:41;8.50;;;5.33;;
11453;SDS011;5783;55.174;61.310;2023-05-07T05:06:10;7.50;;;5.70;;
11453;SDS011;5783;55.174;61.310;2023-05-07T05:08:39;6.13;;;5.37;;
11453;SDS011;5783;55.174;61.310;2023-05-07T05:11:08;7.73;;;5.23;;
11453;SDS011;5783;55.174;61.310;2023-05-07T05:13:37;6.53;;;4.73;;
11453;SDS011;5783;55.174;61.310;2023-05-07T05:16:07;8.97;;;5.10;;
11453;SDS011;5783;55.174;61.310;2023-05-07T05:18:36;6.27;;;4.93;;
11453;SDS011;5783;55.174;61.310;2023-05-07T05:21:05;7.07;;;4.97;;
11453;SDS011;5783;55.174;61.310;2023-05-07T05:23:34;8.10;;;5.40;;
11453;SDS011;5783;55.174;61.310;2023-05-07T05:26:03;9.30;;;6.33;;
11453;SDS011;5783;55.174;61.310;2023-05-07T05:28:32;11.57;;;5.47;;
11453;SDS011;5783;55.174;61.310;2023-05-07T05:31:01;7.53;;;4.70;;
11453;SDS011;5783;55.174;61.310;2023-05-07T05:33:30;6.93;;;4.87;;
11453;SDS011;5783;55.174;61.310;2023-05-07T05:36:00;8.00;;;5.27;;
11453;SDS011;5783;55.174;61.310;2023-05-07T05:38:29;10.37;;;5.33;;
11453;SDS011;5783;55.174;61.310;2023-05-07T05:40:58;6.47;;;4.50;;
11453;SDS011;5783;55.174;61.310;2023-05-07T05:43:27;9.37;;;4.37;;
11453;SDS011;5783;55.174;61.310;2023-05-07T05:45:56;7.80;;;4.70;;
11453;SDS011;5783;55.174;61.310;2023-05-07T05:48:26;10.20;;;4.67;;
11453;SDS011;5783;55.174;61.310;2023-05-07T05:50:57;6.33;;;4.23;;
11453;SDS011;5783;55.174;61.310;2023-05-07T05:53:26;6.90;;;4.27;;
11453;SDS011;5783;55.174;61.310;2023-05-07T05:55:55;6.70;;;4.03;;
11453;SDS011;5783;55.174;61.310;2023-05-07T05:58:24;9.67;;;4.03;;
11453;SDS011;5783;55.174;61.310;2023-05-07T06:00:53;5.60;;;4.00;;
11453;SDS011;5783;55.174;61.310;2023-05-07T06:03:24;7.07;;;3.80;;
11453;SDS011;5783;55.174;61.310;2023-05-07T06:05:53;7.03;;;4.00;;
11453;SDS011;5783;55.174;61.310;2023-05-07T06:08:22;6.37;;;3.90;;
11453;SDS011;5783;55.174;61.310;2023-05-07T06:10:51;6.20;;;3.73;;
11453;SDS011;5783;55.174;61.310;2023-05-07T06:13:21;6.47;;;3.47;;
11453;SDS011;5783;55.174;61.310;2023-05-07T06:15:50;8.97;;;3.80;;
11453;SDS011;5783;55.174;61.310;2023-05-07T06:18:19;7.50;;;3.80;;
11453;SDS011;5783;55.174;61.310;2023-05-07T06:20:49;6.97;;;3.90;;
11453;SDS011;5783;55.174;61.310;2023-05-07T06:23:18;5.30;;;3.63;;
11453;SDS011;5783;55.174;61.310;2023-05-07T06:28:19;5.03;;;3.60;;
11453;SDS011;5783;55.174;61.310;2023-05-07T06:30:48;5.77;;;3.80;;
11453;SDS011;5783;55.174;61.310;2023-05-07T06:33:17;7.10;;;3.80;;
11453;SDS011;5783;55.174;61.310;2023-05-07T06:35:47;5.33;;;3.80;;
11453;SDS011;5783;55.174;61.310;2023-05-07T06:38:16;5.70;;;3.70;;
11453;SDS011;5783;55.174;61.310;2023-05-07T06:40:47;4.50;;;3.73;;
11453;SDS011;5783;55.174;61.310;2023-05-07T06:43:17;6.80;;;4.10;;
11453;SDS011;5783;55.174;61.310;2023-05-07T06:45:46;6.43;;;3.93;;
11453;SDS011;5783;55.174;61.310;2023-05-07T06:48:15;8.20;;;3.90;;
11453;SDS011;5783;55.174;61.310;2023-05-07T06:50:44;6.87;;;3.90;;
11453;SDS011;5783;55.174;61.310;2023-05-07T06:53:13;6.23;;;3.93;;
11453;SDS011;5783;55.174;61.310;2023-05-07T06:55:42;6.10;;;3.80;;
11453;SDS011;5783;55.174;61.310;2023-05-07T06:58:12;5.57;;;3.80;;
11453;SDS011;5783;55.174;61.310;2023-05-07T07:00:41;5.53;;;4.00;;
11453;SDS011;5783;55.174;61.310;2023-05-07T07:03:11;5.23;;;3.53;;
11453;SDS011;5783;55.174;61.310;2023-05-07T07:05:41;7.00;;;3.97;;
11453;SDS011;5783;55.174;61.310;2023-05-07T07:08:10;8.83;;;3.90;;
11453;SDS011;5783;55.174;61.310;2023-05-07T07:10:40;5.63;;;3.40;;
11453;SDS011;5783;55.174;61.310;2023-05-07T07:13:09;5.13;;;3.63;;
11453;SDS011;5783;55.174;61.310;2023-05-07T07:15:38;5.30;;;3.70;;
11453;SDS011;5783;55.174;61.310;2023-05-07T07:18:08;9.13;;;4.17;;
11453;SDS011;5783;55.174;61.310;2023-05-07T07:20:37;6.63;;;3.67;;
11453;SDS011;5783;55.174;61.310;2023-05-07T07:23:06;5.17;;;3.67;;
11453;SDS011;5783;55.174;61.310;2023-05-07T07:25:35;8.37;;;3.83;;
11453;SDS011;5783;55.174;61.310;2023-05-07T07:28:05;6.57;;;3.97;;
11453;SDS011;5783;55.174;61.310;2023-05-07T07:30:34;7.43;;;4.17;;
11453;SDS011;5783;55.174;61.310;2023-05-07T07:33:03;13.90;;;4.20;;
11453;SDS011;5783;55.174;61.310;2023-05-07T07:35:32;6.40;;;3.80;;
11453;SDS011;5783;55.174;61.310;2023-05-07T07:38:01;7.13;;;3.63;;
11453;SDS011;5783;55.174;61.310;2023-05-07T07:40:31;8.07;;;3.93;;
11453;SDS011;5783;55.174;61.310;2023-05-07T07:43:01;7.20;;;3.97;;
11453;SDS011;5783;55.174;61.310;2023-05-07T07:45:31;7.83;;;3.97;;
11453;SDS011;5783;55.174;61.310;2023-05-07T07:48:01;10.30;;;3.80;;
11453;SDS011;5783;55.174;61.310;2023-05-07T07:50:30;9.23;;;4.10;;
11453;SDS011;5783;55.174;61.310;2023-05-07T07:52:59;12.73;;;3.60;;
11453;SDS011;5783;55.174;61.310;2023-05-07T07:55:28;8.83;;;3.90;;
11453;SDS011;5783;55.174;61.310;2023-05-07T07:57:58;7.97;;;4.13;;
11453;SDS011;5783;55.174;61.310;2023-05-07T08:00:27;11.90;;;3.70;;
11453;SDS011;5783;55.174;61.310;2023-05-07T08:02:56;7.27;;;3.70;;
11453;SDS011;5783;55.174;61.310;2023-05-07T08:05:26;9.77;;;3.40;;
11453;SDS011;5783;55.174;61.310;2023-05-07T08:07:56;7.70;;;3.70;;
11453;SDS011;5783;55.174;61.310;2023-05-07T08:10:25;11.40;;;3.70;;
11453;SDS011;5783;55.174;61.310;2023-05-07T08:12:54;6.67;;;3.90;;
11453;SDS011;5783;55.174;61.310;2023-05-07T08:15:23;7.57;;;3.90;;
11453;SDS011;5783;55.174;61.310;2023-05-07T08:17:52;7.80;;;3.73;;
11453;SDS011;5783;55.174;61.310;2023-05-07T08:20:23;9.67;;;3.60;;
11453;SDS011;5783;55.174;61.310;2023-05-07T08:22:52;9.57;;;3.90;;
11453;SDS011;5783;55.174;61.310;2023-05-07T08:25:21;10.00;;;3.83;;
11453;SDS011;5783;55.174;61.310;2023-05-07T08:27:51;8.90;;;3.53;;
11453;SDS011;5783;55.174;61.310;2023-05-07T08:30:20;6.83;;;3.73;;
11453;SDS011;5783;55.174;61.310;2023-05-07T08:32:49;6.67;;;3.60;;
11453;SDS011;5783;55.174;61.310;2023-05-07T08:35:18;12.00;;;3.67;;
11453;SDS011;5783;55.174;61.310;2023-05-07T08:37:47;10.17;;;4.00;;
11453;SDS011;5783;55.174;61.310;2023-05-07T08:40:16;10.13;;;3.60;;
11453;SDS011;5783;55.174;61.310;2023-05-07T08:42:49;10.03;;;4.13;;
11453;SDS011;5783;55.174;61.310;2023-05-07T08:45:17;15.03;;;4.30;;
11453;SDS011;5783;55.174;61.310;2023-05-07T08:47:49;20.93;;;5.30;;
11453;SDS011;5783;55.174;61.310;2023-05-07T08:50:20;40.10;;;7.23;;
11453;SDS011;5783;55.174;61.310;2023-05-07T08:52:51;45.03;;;7.87;;
11453;SDS011;5783;55.174;61.310;2023-05-07T08:55:22;30.40;;;6.10;;
11453;SDS011;5783;55.174;61.310;2023-05-07T08:57:52;30.97;;;6.17;;
11453;SDS011;5783;55.174;61.310;2023-05-07T09:00:21;29.50;;;6.03;;
11453;SDS011;5783;55.174;61.310;2023-05-07T09:02:51;15.40;;;4.63;;
11453;SDS011;5783;55.174;61.310;2023-05-07T09:05:21;19.23;;;5.13;;
11453;SDS011;5783;55.174;61.310;2023-05-07T09:07:51;17.80;;;5.43;;
11453;SDS011;5783;55.174;61.310;2023-05-07T09:10:21;13.73;;;4.57;;
11453;SDS011;5783;55.174;61.310;2023-05-07T09:12:50;10.67;;;4.17;;
11453;SDS011;5783;55.174;61.310;2023-05-07T09:15:19;14.30;;;4.47;;
11453;SDS011;5783;55.174;61.310;2023-05-07T09:17:49;13.43;;;4.67;;
11453;SDS011;5783;55.174;61.310;2023-05-07T09:20:18;11.10;;;4.13;;
11453;SDS011;5783;55.174;61.310;2023-05-07T09:22:47;10.17;;;3.90;;
11453;SDS011;5783;55.174;61.310;2023-05-07T09:25:21;11.53;;;4.23;;
11453;SDS011;5783;55.174;61.310;2023-05-07T09:27:50;8.63;;;3.83;;
11453;SDS011;5783;55.174;61.310;2023-05-07T09:30:19;9.70;;;4.00;;
11453;SDS011;5783;55.174;61.310;2023-05-07T09:32:48;7.53;;;3.70;;
11453;SDS011;5783;55.174;61.310;2023-05-07T09:35:17;8.47;;;3.63;;
11453;SDS011;5783;55.174;61.310;2023-05-07T09:38:06;8.23;;;3.90;;
11453;SDS011;5783;55.174;61.310;2023-05-07T09:40:36;9.13;;;4.30;;
11453;SDS011;5783;55.174;61.310;2023-05-07T09:45:54;11.20;;;4.30;;
11453;SDS011;5783;55.174;61.310;2023-05-07T09:48:24;8.53;;;4.37;;
11453;SDS011;5783;55.174;61.310;2023-05-07T09:53:45;9.53;;;3.80;;
11453;SDS011;5783;55.174;61.310;2023-05-07T09:56:15;11.03;;;3.97;;
11453;SDS011;5783;55.174;61.310;2023-05-07T09:58:47;10.73;;;3.70;;
11453;SDS011;5783;55.174;61.310;2023-05-07T10:01:17;13.50;;;4.23;;
11453;SDS011;5783;55.174;61.310;2023-05-07T10:03:48;8.47;;;4.03;;
11453;SDS011;5783;55.174;61.310;2023-05-07T10:09:09;10.20;;;3.93;;
11453;SDS011;5783;55.174;61.310;2023-05-07T10:11:38;9.87;;;3.83;;
11453;SDS011;5783;55.174;61.310;2023-05-07T10:14:09;13.37;;;4.00;;
11453;SDS011;5783;55.174;61.310;2023-05-07T10:16:39;10.97;;;4.10;;
11453;SDS011;5783;55.174;61.310;2023-05-07T10:19:09;9.37;;;4.00;;
11453;SDS011;5783;55.174;61.310;2023-05-07T10:24:31;6.77;;;3.50;;
11453;SDS011;5783;55.174;61.310;2023-05-07T10:27:20;7.87;;;4.20;;
11453;SDS011;5783;55.174;61.310;2023-05-07T10:32:59;17.30;;;4.20;;
11453;SDS011;5783;55.174;61.310;2023-05-07T10:36:04;10.97;;;4.10;;
11453;SDS011;5783;55.174;61.310;2023-05-07T10:38:24;10.93;;;4.20;;
11453;SDS011;5783;55.174;61.310;2023-05-07T10:40:53;8.50;;;3.60;;
11453;SDS011;5783;55.174;61.310;2023-05-07T10:43:22;9.10;;;4.03;;
11453;SDS011;5783;55.174;61.310;2023-05-07T10:51:34;44.53;;;6.07;;
11453;SDS011;5783;55.174;61.310;2023-05-07T10:56:52;27.93;;;4.87;;
11453;SDS011;5783;55.174;61.310;2023-05-07T11:02:12;30.00;;;4.30;;
11453;SDS011;5783;55.174;61.310;2023-05-07T11:04:41;25.13;;;4.40;;
11453;SDS011;5783;55.174;61.310;2023-05-07T11:09:59;15.77;;;3.80;;
11453;SDS011;5783;55.174;61.310;2023-05-07T11:18:11;20.43;;;3.43;;
11453;SDS011;5783;55.174;61.310;2023-05-07T11:26:22;15.80;;;3.20;;
11453;SDS011;5783;55.174;61.310;2023-05-07T11:28:52;15.77;;;3.43;;
11453;SDS011;5783;55.174;61.310;2023-05-07T11:31:23;17.33;;;3.10;;
11453;SDS011;5783;55.174;61.310;2023-05-07T11:34:12;18.33;;;3.33;;
11453;SDS011;5783;55.174;61.310;2023-05-07T11:36:42;18.33;;;3.13;;
11453;SDS011;5783;55.174;61.310;2023-05-07T11:42:02;18.23;;;3.40;;
11453;SDS011;5783;55.174;61.310;2023-05-07T11:47:20;14.67;;;3.13;;
11453;SDS011;5783;55.174;61.310;2023-05-07T11:49:50;13.10;;;2.83;;
11453;SDS011;5783;55.174;61.310;2023-05-07T11:52:22;13.53;;;3.00;;
11453;SDS011;5783;55.174;61.310;2023-05-07T11:57:41;11.50;;;3.13;;
11453;SDS011;5783;55.174;61.310;2023-05-07T12:00:11;9.80;;;2.83;;
11453;SDS011;5783;55.174;61.310;2023-05-07T12:02:43;10.57;;;2.37;;
11453;SDS011;5783;55.174;61.310;2023-05-07T12:05:13;12.80;;;2.60;;
11453;SDS011;5783;55.174;61.310;2023-05-07T12:07:42;11.37;;;2.13;;
11453;SDS011;5783;55.174;61.310;2023-05-07T12:10:12;5.93;;;2.00;;
11453;SDS011;5783;55.174;61.310;2023-05-07T12:12:41;7.53;;;1.93;;
11453;SDS011;5783;55.174;61.310;2023-05-07T12:15:15;6.10;;;1.70;;
11453;SDS011;5783;55.174;61.310;2023-05-07T12:18:02;9.83;;;2.03;;
11453;SDS011;5783;55.174;61.310;2023-05-07T12:20:31;6.50;;;1.57;;
11453;SDS011;5783;55.174;61.310;2023-05-07T12:23:01;5.40;;;1.80;;
11453;SDS011;5783;55.174;61.310;2023-05-07T12:25:31;7.67;;;1.67;;
11453;SDS011;5783;55.174;61.310;2023-05-07T12:28:02;5.07;;;1.80;;
11453;SDS011;5783;55.174;61.310;2023-05-07T12:30:32;4.90;;;1.83;;
11453;SDS011;5783;55.174;61.310;2023-05-07T12:36:12;2.30;;;1.30;;
11453;SDS011;5783;55.174;61.310;2023-05-07T12:38:41;7.50;;;1.90;;
11453;SDS011;5783;55.174;61.310;2023-05-07T12:41:10;5.47;;;1.87;;
11453;SDS011;5783;55.174;61.310;2023-05-07T12:43:40;2.20;;;1.27;;
11453;SDS011;5783;55.174;61.310;2023-05-07T12:46:30;5.53;;;1.60;;
11453;SDS011;5783;55.174;61.310;2023-05-07T12:48:59;3.87;;;1.40;;
11453;SDS011;5783;55.174;61.310;2023-05-07T12:51:28;5.53;;;1.80;;
11453;SDS011;5783;55.174;61.310;2023-05-07T12:53:57;5.67;;;1.57;;
11453;SDS011;5783;55.174;61.310;2023-05-07T12:56:26;3.83;;;1.30;;
11453;SDS011;5783;55.174;61.310;2023-05-07T12:58:58;4.43;;;1.57;;
11453;SDS011;5783;55.174;61.310;2023-05-07T13:04:16;2.70;;;1.43;;
11453;SDS011;5783;55.174;61.310;2023-05-07T13:06:46;4.27;;;1.50;;
11453;SDS011;5783;55.174;61.310;2023-05-07T13:09:16;3.73;;;1.40;;
11453;SDS011;5783;55.174;61.310;2023-05-07T13:11:45;4.77;;;1.60;;
11453;SDS011;5783;55.174;61.310;2023-05-07T13:14:16;6.60;;;1.63;;
11453;SDS011;5783;55.174;61.310;2023-05-07T13:16:47;2.47;;;1.43;;
11453;SDS011;5783;55.174;61.310;2023-05-07T13:19:18;3.00;;;1.37;;
11453;SDS011;5783;55.174;61.310;2023-05-07T13:21:47;2.90;;;1.20;;
11453;SDS011;5783;55.174;61.310;2023-05-07T13:24:16;3.60;;;1.50;;
11453;SDS011;5783;55.174;61.310;2023-05-07T13:26:45;4.67;;;1.20;;
11453;SDS011;5783;55.174;61.310;2023-05-07T13:29:14;5.93;;;1.50;;
11453;SDS011;5783;55.174;61.310;2023-05-07T13:31:43;3.80;;;1.30;;
11453;SDS011;5783;55.174;61.310;2023-05-07T13:34:13;4.07;;;1.30;;
11453;SDS011;5783;55.174;61.310;2023-05-07T13:36:42;3.40;;;1.60;;
11453;SDS011;5783;55.174;61.310;2023-05-07T13:39:11;3.13;;;1.00;;
11453;SDS011;5783;55.174;61.310;2023-05-07T13:41:40;1.13;;;0.97;;
11453;SDS011;5783;55.174;61.310;2023-05-07T13:44:09;2.97;;;1.10;;
11453;SDS011;5783;55.174;61.310;2023-05-07T13:46:38;5.23;;;1.40;;
11453;SDS011;5783;55.174;61.310;2023-05-07T13:49:07;1.73;;;1.10;;
11453;SDS011;5783;55.174;61.310;2023-05-07T13:51:38;3.67;;;1.10;;
11453;SDS011;5783;55.174;61.310;2023-05-07T13:54:07;4.00;;;1.30;;
11453;SDS011;5783;55.174;61.310;2023-05-07T13:56:36;3.30;;;1.30;;
11453;SDS011;5783;55.174;61.310;2023-05-07T13:59:06;2.70;;;1.10;;
11453;SDS011;5783;55.174;61.310;2023-05-07T14:01:35;3.60;;;0.90;;
11453;SDS011;5783;55.174;61.310;2023-05-07T14:04:04;1.33;;;0.67;;
11453;SDS011;5783;55.174;61.310;2023-05-07T14:06:33;2.00;;;1.00;;
11453;SDS011;5783;55.174;61.310;2023-05-07T14:09:02;2.53;;;0.87;;
11453;SDS011;5783;55.174;61.310;2023-05-07T14:11:32;2.43;;;1.07;;
11453;SDS011;5783;55.174;61.310;2023-05-07T14:14:01;2.90;;;1.30;;
11453;SDS011;5783;55.174;61.310;2023-05-07T14:16:30;5.93;;;1.20;;
11453;SDS011;5783;55.174;61.310;2023-05-07T14:18:59;2.40;;;1.17;;
11453;SDS011;5783;55.174;61.310;2023-05-07T14:21:28;6.03;;;1.60;;
11453;SDS011;5783;55.174;61.310;2023-05-07T14:23:58;6.77;;;1.20;;
11453;SDS011;5783;55.174;61.310;2023-05-07T14:26:27;2.10;;;0.83;;
11453;SDS011;5783;55.174;61.310;2023-05-07T14:28:56;3.77;;;1.20;;
11453;SDS011;5783;55.174;61.310;2023-05-07T14:31:25;1.47;;;0.93;;
11453;SDS011;5783;55.174;61.310;2023-05-07T14:33:54;4.97;;;1.63;;
11453;SDS011;5783;55.174;61.310;2023-05-07T14:36:24;2.40;;;1.07;;
11453;SDS011;5783;55.174;61.310;2023-05-07T14:38:55;5.10;;;1.20;;
11453;SDS011;5783;55.174;61.310;2023-05-07T14:41:25;1.77;;;1.07;;
11453;SDS011;5783;55.174;61.310;2023-05-07T14:43:54;2.87;;;0.93;;
11453;SDS011;5783;55.174;61.310;2023-05-07T14:46:24;3.60;;;0.93;;
11453;SDS011;5783;55.174;61.310;2023-05-07T14:48:53;3.07;;;1.00;;
11453;SDS011;5783;55.174;61.310;2023-05-07T14:51:22;4.20;;;0.90;;
11453;SDS011;5783;55.174;61.310;2023-05-07T14:53:53;2.00;;;1.07;;
11453;SDS011;5783;55.174;61.310;2023-05-07T14:56:22;1.47;;;0.80;;
11453;SDS011;5783;55.174;61.310;2023-05-07T14:58:51;1.13;;;0.73;;
11453;SDS011;5783;55.174;61.310;2023-05-07T15:01:21;1.63;;;0.80;;
11453;SDS011;5783;55.174;61.310;2023-05-07T15:03:50;1.10;;;0.60;;
11453;SDS011;5783;55.174;61.310;2023-05-07T15:06:19;0.77;;;0.60;;
11453;SDS011;5783;55.174;61.310;2023-05-07T15:08:49;1.80;;;0.57;;
11453;SDS011;5783;55.174;61.310;2023-05-07T15:11:19;0.40;;;0.40;;
11453;SDS011;5783;55.174;61.310;2023-05-07T15:13:48;1.20;;;0.73;;
11453;SDS011;5783;55.174;61.310;2023-05-07T15:16:18;2.10;;;0.70;;
11453;SDS011;5783;55.174;61.310;2023-05-07T15:18:48;2.20;;;0.63;;
11453;SDS011;5783;55.174;61.310;2023-05-07T15:21:17;0.53;;;0.50;;
11453;SDS011;5783;55.174;61.310;2023-05-07T15:23:46;1.53;;;0.50;;
11453;SDS011;5783;55.174;61.310;2023-05-07T15:26:15;1.20;;;0.80;;
11453;SDS011;5783;55.174;61.310;2023-05-07T15:28:44;0.50;;;0.50;;
11453;SDS011;5783;55.174;61.310;2023-05-07T15:31:14;1.23;;;0.67;;
11453;SDS011;5783;55.174;61.310;2023-05-07T15:33:44;0.53;;;0.53;;
11453;SDS011;5783;55.174;61.310;2023-05-07T15:36:13;0.77;;;0.53;;
11453;SDS011;5783;55.174;61.310;2023-05-07T15:38:42;2.50;;;1.00;;
11453;SDS011;5783;55.174;61.310;2023-05-07T15:41:11;1.23;;;0.80;;
11453;SDS011;5783;55.174;61.310;2023-05-07T15:46:29;1.90;;;0.70;;
11453;SDS011;5783;55.174;61.310;2023-05-07T15:48:59;1.60;;;0.83;;
11453;SDS011;5783;55.174;61.310;2023-05-07T15:51:49;0.63;;;0.63;;
11453;SDS011;5783;55.174;61.310;2023-05-07T15:54:20;2.20;;;1.00;;
11453;SDS011;5783;55.174;61.310;2023-05-07T15:56:50;1.47;;;0.90;;
11453;SDS011;5783;55.174;61.310;2023-05-07T15:59:19;2.47;;;0.80;;
11453;SDS011;5783;55.174;61.310;2023-05-07T16:01:48;1.20;;;1.10;;
11453;SDS011;5783;55.174;61.310;2023-05-07T16:04:18;1.80;;;1.30;;
11453;SDS011;5783;55.174;61.310;2023-05-07T16:06:47;23.23;;;2.50;;